sensor_id;sensor_type;location;lat;lon;timestamp;P1;durP1;ratioP1;P2;durP2;ratioP2
27003;SDS011;14546;47.590;19.022;2023-12-22T00:01:09;8.77;;;5.40;;
27003;SDS011;14546;47.590;19.022;2023-12-22T00:03:36;12.60;;;6.85;;
27003;SDS011;14546;47.590;19.022;2023-12-22T00:06:02;10.63;;;5.60;;
27003;SDS011;14546;47.590;19.022;2023-12-22T00:08:29;11.13;;;6.68;;
27003;SDS011;14546;47.590;19.022;2023-12-22T00:10:55;7.35;;;4.20;;
27003;SDS011;14546;47.590;19.022;2023-12-22T00:13:21;9.85;;;6.00;;
27003;SDS011;14546;47.590;19.022;2023-12-22T00:15:47;8.68;;;5.38;;
27003;SDS011;14546;47.590;19.022;2023-12-22T00:18:13;6.63;;;4.07;;
27003;SDS011;14546;47.590;19.022;2023-12-22T00:20:39;10.25;;;5.18;;
27003;SDS011;14546;47.590;19.022;2023-12-22T00:23:05;10.90;;;4.82;;
27003;SDS011;14546;47.590;19.022;2023-12-22T00:25:31;8.60;;;4.80;;
27003;SDS011;14546;47.590;19.022;2023-12-22T00:27:57;12.35;;;5.95;;
27003;SDS011;14546;47.590;19.022;2023-12-22T00:30:23;7.60;;;4.25;;
27003;SDS011;14546;47.590;19.022;2023-12-22T00:32:49;12.95;;;5.22;;
27003;SDS011;14546;47.590;19.022;2023-12-22T00:35:15;10.38;;;5.63;;
27003;SDS011;14546;47.590;19.022;2023-12-22T00:37:41;12.07;;;6.25;;
27003;SDS011;14546;47.590;19.022;2023-12-22T00:40:07;9.20;;;6.15;;
27003;SDS011;14546;47.590;19.022;2023-12-22T00:42:34;11.30;;;6.88;;
27003;SDS011;14546;47.590;19.022;2023-12-22T00:45:00;13.30;;;8.20;;
27003;SDS011;14546;47.590;19.022;2023-12-22T00:47:27;16.90;;;8.57;;
27003;SDS011;14546;47.590;19.022;2023-12-22T00:49:53;14.07;;;8.50;;
27003;SDS011;14546;47.590;19.022;2023-12-22T00:52:19;12.77;;;8.20;;
27003;SDS011;14546;47.590;19.022;2023-12-22T00:54:45;12.18;;;7.85;;
27003;SDS011;14546;47.590;19.022;2023-12-22T00:57:11;11.90;;;6.85;;
27003;SDS011;14546;47.590;19.022;2023-12-22T00:59:38;11.35;;;7.13;;
27003;SDS011;14546;47.590;19.022;2023-12-22T01:02:10;10.65;;;6.40;;
27003;SDS011;14546;47.590;19.022;2023-12-22T01:04:36;10.38;;;5.85;;
27003;SDS011;14546;47.590;19.022;2023-12-22T01:07:02;10.82;;;5.90;;
27003;SDS011;14546;47.590;19.022;2023-12-22T01:09:28;7.50;;;4.53;;
27003;SDS011;14546;47.590;19.022;2023-12-22T01:11:54;11.50;;;6.78;;
27003;SDS011;14546;47.590;19.022;2023-12-22T01:14:20;13.38;;;6.45;;
27003;SDS011;14546;47.590;19.022;2023-12-22T01:16:46;11.35;;;6.57;;
27003;SDS011;14546;47.590;19.022;2023-12-22T01:19:12;9.25;;;5.85;;
27003;SDS011;14546;47.590;19.022;2023-12-22T01:21:38;9.82;;;6.13;;
27003;SDS011;14546;47.590;19.022;2023-12-22T01:24:04;10.23;;;6.30;;
27003;SDS011;14546;47.590;19.022;2023-12-22T01:26:30;10.05;;;5.40;;
27003;SDS011;14546;47.590;19.022;2023-12-22T01:28:56;9.93;;;5.22;;
27003;SDS011;14546;47.590;19.022;2023-12-22T01:31:22;10.55;;;5.75;;
27003;SDS011;14546;47.590;19.022;2023-12-22T01:33:48;9.88;;;5.80;;
27003;SDS011;14546;47.590;19.022;2023-12-22T01:36:14;9.55;;;5.20;;
27003;SDS011;14546;47.590;19.022;2023-12-22T01:38:40;10.77;;;5.68;;
27003;SDS011;14546;47.590;19.022;2023-12-22T01:41:06;8.10;;;4.85;;
27003;SDS011;14546;47.590;19.022;2023-12-22T01:43:33;7.72;;;4.93;;
27003;SDS011;14546;47.590;19.022;2023-12-22T01:45:59;14.05;;;5.32;;
27003;SDS011;14546;47.590;19.022;2023-12-22T01:48:26;8.10;;;5.22;;
27003;SDS011;14546;47.590;19.022;2023-12-22T01:50:54;13.82;;;4.90;;
27003;SDS011;14546;47.590;19.022;2023-12-22T01:53:20;8.68;;;4.40;;
27003;SDS011;14546;47.590;19.022;2023-12-22T01:55:48;9.07;;;4.70;;
27003;SDS011;14546;47.590;19.022;2023-12-22T01:58:14;7.88;;;4.30;;
27003;SDS011;14546;47.590;19.022;2023-12-22T02:00:40;7.32;;;4.18;;
27003;SDS011;14546;47.590;19.022;2023-12-22T02:03:06;4.45;;;3.45;;
27003;SDS011;14546;47.590;19.022;2023-12-22T02:05:33;5.18;;;3.03;;
27003;SDS011;14546;47.590;19.022;2023-12-22T02:07:59;3.85;;;2.58;;
27003;SDS011;14546;47.590;19.022;2023-12-22T02:10:25;5.03;;;2.40;;
27003;SDS011;14546;47.590;19.022;2023-12-22T02:12:51;4.50;;;2.20;;
27003;SDS011;14546;47.590;19.022;2023-12-22T02:15:18;5.85;;;2.55;;
27003;SDS011;14546;47.590;19.022;2023-12-22T02:20:14;2.70;;;1.45;;
27003;SDS011;14546;47.590;19.022;2023-12-22T02:22:40;1.92;;;1.15;;
27003;SDS011;14546;47.590;19.022;2023-12-22T02:25:06;2.55;;;1.42;;
27003;SDS011;14546;47.590;19.022;2023-12-22T02:28:07;4.40;;;1.15;;
27003;SDS011;14546;47.590;19.022;2023-12-22T02:33:09;1.27;;;0.95;;
27003;SDS011;14546;47.590;19.022;2023-12-22T02:35:36;1.08;;;0.80;;
27003;SDS011;14546;47.590;19.022;2023-12-22T02:38:03;0.98;;;0.70;;
27003;SDS011;14546;47.590;19.022;2023-12-22T02:40:30;2.13;;;1.00;;
27003;SDS011;14546;47.590;19.022;2023-12-22T02:42:56;2.58;;;0.90;;
27003;SDS011;14546;47.590;19.022;2023-12-22T02:45:22;1.95;;;0.90;;
27003;SDS011;14546;47.590;19.022;2023-12-22T02:47:48;2.10;;;0.68;;
27003;SDS011;14546;47.590;19.022;2023-12-22T02:50:15;3.53;;;0.90;;
27003;SDS011;14546;47.590;19.022;2023-12-22T02:52:41;1.73;;;0.75;;
27003;SDS011;14546;47.590;19.022;2023-12-22T02:55:07;1.38;;;0.82;;
27003;SDS011;14546;47.590;19.022;2023-12-22T02:57:33;2.85;;;0.80;;
27003;SDS011;14546;47.590;19.022;2023-12-22T02:59:59;1.48;;;0.80;;
27003;SDS011;14546;47.590;19.022;2023-12-22T03:02:26;2.65;;;0.90;;
27003;SDS011;14546;47.590;19.022;2023-12-22T03:04:52;3.53;;;0.88;;
27003;SDS011;14546;47.590;19.022;2023-12-22T03:07:18;2.15;;;0.80;;
27003;SDS011;14546;47.590;19.022;2023-12-22T03:09:44;1.23;;;0.70;;
27003;SDS011;14546;47.590;19.022;2023-12-22T03:12:10;1.50;;;0.77;;
27003;SDS011;14546;47.590;19.022;2023-12-22T03:14:36;2.20;;;0.90;;
27003;SDS011;14546;47.590;19.022;2023-12-22T03:17:03;2.83;;;0.80;;
27003;SDS011;14546;47.590;19.022;2023-12-22T03:19:29;1.05;;;0.70;;
27003;SDS011;14546;47.590;19.022;2023-12-22T03:21:56;3.00;;;0.80;;
27003;SDS011;14546;47.590;19.022;2023-12-22T03:24:22;1.70;;;0.90;;
27003;SDS011;14546;47.590;19.022;2023-12-22T03:26:49;3.70;;;1.02;;
27003;SDS011;14546;47.590;19.022;2023-12-22T03:29:15;1.42;;;0.73;;
27003;SDS011;14546;47.590;19.022;2023-12-22T03:31:41;3.00;;;0.73;;
27003;SDS011;14546;47.590;19.022;2023-12-22T03:34:07;2.03;;;0.80;;
27003;SDS011;14546;47.590;19.022;2023-12-22T03:36:33;1.90;;;0.60;;
27003;SDS011;14546;47.590;19.022;2023-12-22T03:38:59;3.65;;;0.90;;
27003;SDS011;14546;47.590;19.022;2023-12-22T03:41:25;1.85;;;0.60;;
27003;SDS011;14546;47.590;19.022;2023-12-22T03:43:51;4.53;;;0.80;;
27003;SDS011;14546;47.590;19.022;2023-12-22T03:46:17;9.18;;;2.50;;
27003;SDS011;14546;47.590;19.022;2023-12-22T03:48:43;6.22;;;3.28;;
27003;SDS011;14546;47.590;19.022;2023-12-22T03:51:09;7.07;;;2.83;;
27003;SDS011;14546;47.590;19.022;2023-12-22T03:53:38;15.43;;;7.40;;
27003;SDS011;14546;47.590;19.022;2023-12-22T03:56:04;22.95;;;10.80;;
27003;SDS011;14546;47.590;19.022;2023-12-22T03:58:30;29.85;;;13.02;;
27003;SDS011;14546;47.590;19.022;2023-12-22T04:00:56;27.63;;;11.30;;
27003;SDS011;14546;47.590;19.022;2023-12-22T04:03:22;21.00;;;8.25;;
27003;SDS011;14546;47.590;19.022;2023-12-22T04:05:48;18.35;;;7.57;;
27003;SDS011;14546;47.590;19.022;2023-12-22T04:08:14;19.20;;;7.95;;
27003;SDS011;14546;47.590;19.022;2023-12-22T04:10:40;15.73;;;4.32;;
27003;SDS011;14546;47.590;19.022;2023-12-22T04:13:06;13.38;;;4.63;;
27003;SDS011;14546;47.590;19.022;2023-12-22T04:15:32;14.90;;;4.70;;
27003;SDS011;14546;47.590;19.022;2023-12-22T04:17:58;12.75;;;4.43;;
27003;SDS011;14546;47.590;19.022;2023-12-22T04:20:24;17.10;;;3.92;;
27003;SDS011;14546;47.590;19.022;2023-12-22T04:22:50;10.90;;;3.45;;
27003;SDS011;14546;47.590;19.022;2023-12-22T04:25:16;3.47;;;1.30;;
27003;SDS011;14546;47.590;19.022;2023-12-22T04:27:43;6.82;;;1.00;;
27003;SDS011;14546;47.590;19.022;2023-12-22T04:30:09;7.22;;;1.25;;
27003;SDS011;14546;47.590;19.022;2023-12-22T04:32:36;7.28;;;0.98;;
27003;SDS011;14546;47.590;19.022;2023-12-22T04:35:02;2.85;;;1.00;;
27003;SDS011;14546;47.590;19.022;2023-12-22T04:37:28;7.93;;;0.88;;
27003;SDS011;14546;47.590;19.022;2023-12-22T04:39:54;3.78;;;0.73;;
27003;SDS011;14546;47.590;19.022;2023-12-22T04:42:20;4.15;;;0.90;;
27003;SDS011;14546;47.590;19.022;2023-12-22T04:44:46;4.18;;;1.20;;
27003;SDS011;14546;47.590;19.022;2023-12-22T04:47:12;5.32;;;0.70;;
27003;SDS011;14546;47.590;19.022;2023-12-22T04:49:38;3.90;;;0.90;;
27003;SDS011;14546;47.590;19.022;2023-12-22T04:52:04;3.13;;;0.73;;
27003;SDS011;14546;47.590;19.022;2023-12-22T04:54:30;4.20;;;0.60;;
27003;SDS011;14546;47.590;19.022;2023-12-22T04:56:56;4.13;;;1.00;;
27003;SDS011;14546;47.590;19.022;2023-12-22T04:59:22;5.45;;;1.05;;
27003;SDS011;14546;47.590;19.022;2023-12-22T05:01:48;6.93;;;1.30;;
27003;SDS011;14546;47.590;19.022;2023-12-22T05:04:14;7.10;;;1.10;;
27003;SDS011;14546;47.590;19.022;2023-12-22T05:06:42;5.35;;;1.25;;
27003;SDS011;14546;47.590;19.022;2023-12-22T05:09:08;3.45;;;1.05;;
27003;SDS011;14546;47.590;19.022;2023-12-22T05:11:34;2.05;;;1.00;;
27003;SDS011;14546;47.590;19.022;2023-12-22T05:14:00;5.53;;;0.90;;
27003;SDS011;14546;47.590;19.022;2023-12-22T05:16:26;3.33;;;0.80;;
27003;SDS011;14546;47.590;19.022;2023-12-22T05:18:54;4.53;;;0.98;;
27003;SDS011;14546;47.590;19.022;2023-12-22T05:21:20;6.45;;;1.00;;
27003;SDS011;14546;47.590;19.022;2023-12-22T05:23:46;5.15;;;1.10;;
27003;SDS011;14546;47.590;19.022;2023-12-22T05:26:16;6.18;;;1.45;;
27003;SDS011;14546;47.590;19.022;2023-12-22T05:28:43;7.93;;;1.20;;
27003;SDS011;14546;47.590;19.022;2023-12-22T05:31:09;5.07;;;1.50;;
27003;SDS011;14546;47.590;19.022;2023-12-22T05:33:35;6.53;;;1.10;;
27003;SDS011;14546;47.590;19.022;2023-12-22T05:36:01;10.93;;;1.83;;
27003;SDS011;14546;47.590;19.022;2023-12-22T05:38:28;6.95;;;1.80;;
27003;SDS011;14546;47.590;19.022;2023-12-22T05:40:54;8.40;;;1.73;;
27003;SDS011;14546;47.590;19.022;2023-12-22T05:43:20;8.10;;;2.17;;
27003;SDS011;14546;47.590;19.022;2023-12-22T05:45:46;7.07;;;1.35;;
27003;SDS011;14546;47.590;19.022;2023-12-22T05:48:12;5.75;;;1.17;;
27003;SDS011;14546;47.590;19.022;2023-12-22T05:50:38;8.25;;;1.95;;
27003;SDS011;14546;47.590;19.022;2023-12-22T05:53:04;5.68;;;1.20;;
27003;SDS011;14546;47.590;19.022;2023-12-22T05:55:30;4.85;;;1.40;;
27003;SDS011;14546;47.590;19.022;2023-12-22T05:57:56;8.38;;;1.58;;
27003;SDS011;14546;47.590;19.022;2023-12-22T06:00:22;6.38;;;1.20;;
27003;SDS011;14546;47.590;19.022;2023-12-22T06:02:48;7.28;;;1.25;;
27003;SDS011;14546;47.590;19.022;2023-12-22T06:05:14;9.70;;;1.10;;
27003;SDS011;14546;47.590;19.022;2023-12-22T06:07:40;9.23;;;2.85;;
27003;SDS011;14546;47.590;19.022;2023-12-22T06:10:07;9.63;;;2.10;;
27003;SDS011;14546;47.590;19.022;2023-12-22T06:12:34;4.80;;;1.15;;
27003;SDS011;14546;47.590;19.022;2023-12-22T06:15:01;4.45;;;1.33;;
27003;SDS011;14546;47.590;19.022;2023-12-22T06:17:28;13.45;;;3.05;;
27003;SDS011;14546;47.590;19.022;2023-12-22T06:19:55;5.18;;;1.42;;
27003;SDS011;14546;47.590;19.022;2023-12-22T06:22:22;6.82;;;1.60;;
27003;SDS011;14546;47.590;19.022;2023-12-22T06:24:49;7.35;;;1.88;;
27003;SDS011;14546;47.590;19.022;2023-12-22T06:27:15;7.88;;;2.00;;
27003;SDS011;14546;47.590;19.022;2023-12-22T06:29:41;7.45;;;1.48;;
27003;SDS011;14546;47.590;19.022;2023-12-22T06:32:07;11.27;;;2.80;;
27003;SDS011;14546;47.590;19.022;2023-12-22T06:34:34;13.23;;;2.95;;
27003;SDS011;14546;47.590;19.022;2023-12-22T06:37:00;7.03;;;1.92;;
27003;SDS011;14546;47.590;19.022;2023-12-22T06:39:26;10.50;;;1.85;;
27003;SDS011;14546;47.590;19.022;2023-12-22T06:41:52;13.45;;;1.83;;
27003;SDS011;14546;47.590;19.022;2023-12-22T06:44:18;7.22;;;1.50;;
27003;SDS011;14546;47.590;19.022;2023-12-22T06:46:44;10.43;;;1.70;;
27003;SDS011;14546;47.590;19.022;2023-12-22T06:49:10;10.32;;;1.77;;
27003;SDS011;14546;47.590;19.022;2023-12-22T06:51:36;10.70;;;2.10;;
27003;SDS011;14546;47.590;19.022;2023-12-22T06:54:02;8.82;;;1.48;;
27003;SDS011;14546;47.590;19.022;2023-12-22T06:56:33;12.05;;;1.50;;
27003;SDS011;14546;47.590;19.022;2023-12-22T06:58:59;7.07;;;1.83;;
27003;SDS011;14546;47.590;19.022;2023-12-22T07:01:31;8.93;;;1.83;;
27003;SDS011;14546;47.590;19.022;2023-12-22T07:03:58;15.73;;;2.63;;
27003;SDS011;14546;47.590;19.022;2023-12-22T07:06:30;15.40;;;2.25;;
27003;SDS011;14546;47.590;19.022;2023-12-22T07:09:42;12.98;;;2.28;;
27003;SDS011;14546;47.590;19.022;2023-12-22T07:11:47;9.45;;;2.08;;
27003;SDS011;14546;47.590;19.022;2023-12-22T07:14:13;11.95;;;2.83;;
27003;SDS011;14546;47.590;19.022;2023-12-22T07:16:40;12.85;;;2.30;;
27003;SDS011;14546;47.590;19.022;2023-12-22T07:19:07;15.65;;;2.88;;
27003;SDS011;14546;47.590;19.022;2023-12-22T07:21:33;8.27;;;2.13;;
27003;SDS011;14546;47.590;19.022;2023-12-22T07:23:59;10.70;;;2.03;;
27003;SDS011;14546;47.590;19.022;2023-12-22T07:26:28;18.00;;;2.75;;
27003;SDS011;14546;47.590;19.022;2023-12-22T07:28:54;10.43;;;1.70;;
27003;SDS011;14546;47.590;19.022;2023-12-22T07:31:20;9.07;;;1.90;;
27003;SDS011;14546;47.590;19.022;2023-12-22T07:33:46;14.68;;;1.92;;
27003;SDS011;14546;47.590;19.022;2023-12-22T07:36:13;8.30;;;1.58;;
27003;SDS011;14546;47.590;19.022;2023-12-22T07:38:39;14.02;;;2.10;;
27003;SDS011;14546;47.590;19.022;2023-12-22T07:41:05;12.25;;;1.92;;
27003;SDS011;14546;47.590;19.022;2023-12-22T07:43:31;6.50;;;1.52;;
27003;SDS011;14546;47.590;19.022;2023-12-22T07:45:57;14.65;;;2.05;;
27003;SDS011;14546;47.590;19.022;2023-12-22T07:48:23;7.43;;;1.75;;
27003;SDS011;14546;47.590;19.022;2023-12-22T07:50:49;6.78;;;1.60;;
27003;SDS011;14546;47.590;19.022;2023-12-22T07:53:15;8.60;;;1.75;;
27003;SDS011;14546;47.590;19.022;2023-12-22T07:55:42;10.35;;;2.40;;
27003;SDS011;14546;47.590;19.022;2023-12-22T07:58:08;11.32;;;1.67;;
27003;SDS011;14546;47.590;19.022;2023-12-22T08:00:34;14.10;;;1.98;;
27003;SDS011;14546;47.590;19.022;2023-12-22T08:03:00;8.82;;;2.10;;
27003;SDS011;14546;47.590;19.022;2023-12-22T08:05:26;12.60;;;2.20;;
27003;SDS011;14546;47.590;19.022;2023-12-22T08:07:52;6.88;;;1.70;;
27003;SDS011;14546;47.590;19.022;2023-12-22T08:10:18;8.55;;;1.90;;
27003;SDS011;14546;47.590;19.022;2023-12-22T08:12:44;9.13;;;2.03;;
27003;SDS011;14546;47.590;19.022;2023-12-22T08:15:10;11.98;;;2.72;;
27003;SDS011;14546;47.590;19.022;2023-12-22T08:17:37;8.07;;;1.90;;
27003;SDS011;14546;47.590;19.022;2023-12-22T08:20:03;10.57;;;1.90;;
27003;SDS011;14546;47.590;19.022;2023-12-22T08:22:33;9.75;;;1.90;;
27003;SDS011;14546;47.590;19.022;2023-12-22T08:24:59;10.60;;;1.85;;
27003;SDS011;14546;47.590;19.022;2023-12-22T08:27:25;7.15;;;1.33;;
27003;SDS011;14546;47.590;19.022;2023-12-22T08:29:51;6.65;;;1.80;;
27003;SDS011;14546;47.590;19.022;2023-12-22T08:32:17;8.18;;;1.38;;
27003;SDS011;14546;47.590;19.022;2023-12-22T08:34:44;10.13;;;1.73;;
27003;SDS011;14546;47.590;19.022;2023-12-22T08:37:10;4.72;;;1.10;;
27003;SDS011;14546;47.590;19.022;2023-12-22T08:59:15;12.98;;;2.83;;
27003;SDS011;14546;47.590;19.022;2023-12-22T09:01:41;6.45;;;1.63;;
27003;SDS011;14546;47.590;19.022;2023-12-22T09:04:09;5.13;;;1.50;;
27003;SDS011;14546;47.590;19.022;2023-12-22T09:06:36;5.95;;;1.40;;
27003;SDS011;14546;47.590;19.022;2023-12-22T09:09:02;9.23;;;1.45;;
27003;SDS011;14546;47.590;19.022;2023-12-22T09:11:32;5.82;;;1.23;;
27003;SDS011;14546;47.590;19.022;2023-12-22T09:13:59;8.07;;;1.23;;
27003;SDS011;14546;47.590;19.022;2023-12-22T09:16:25;13.85;;;1.67;;
27003;SDS011;14546;47.590;19.022;2023-12-22T09:18:51;5.25;;;1.02;;
27003;SDS011;14546;47.590;19.022;2023-12-22T09:21:17;8.27;;;1.48;;
27003;SDS011;14546;47.590;19.022;2023-12-22T09:23:44;3.58;;;0.95;;
27003;SDS011;14546;47.590;19.022;2023-12-22T09:26:11;5.85;;;1.70;;
27003;SDS011;14546;47.590;19.022;2023-12-22T09:28:37;4.50;;;1.20;;
27003;SDS011;14546;47.590;19.022;2023-12-22T09:31:03;6.68;;;1.63;;
27003;SDS011;14546;47.590;19.022;2023-12-22T09:33:30;5.53;;;1.40;;
27003;SDS011;14546;47.590;19.022;2023-12-22T09:35:56;6.18;;;1.63;;
27003;SDS011;14546;47.590;19.022;2023-12-22T09:38:22;6.22;;;1.55;;
27003;SDS011;14546;47.590;19.022;2023-12-22T09:40:51;7.97;;;1.70;;
27003;SDS011;14546;47.590;19.022;2023-12-22T09:43:18;6.63;;;1.88;;
27003;SDS011;14546;47.590;19.022;2023-12-22T09:45:48;8.02;;;1.58;;
27003;SDS011;14546;47.590;19.022;2023-12-22T09:48:15;5.03;;;1.10;;
27003;SDS011;14546;47.590;19.022;2023-12-22T09:50:43;5.03;;;1.50;;
27003;SDS011;14546;47.590;19.022;2023-12-22T09:53:12;4.25;;;1.10;;
27003;SDS011;14546;47.590;19.022;2023-12-22T09:55:42;4.90;;;1.08;;
27003;SDS011;14546;47.590;19.022;2023-12-22T09:58:08;8.27;;;1.60;;
27003;SDS011;14546;47.590;19.022;2023-12-22T10:00:35;4.82;;;1.30;;
27003;SDS011;14546;47.590;19.022;2023-12-22T10:03:03;6.78;;;1.42;;
27003;SDS011;14546;47.590;19.022;2023-12-22T10:05:31;5.10;;;1.38;;
27003;SDS011;14546;47.590;19.022;2023-12-22T10:07:57;5.63;;;1.52;;
27003;SDS011;14546;47.590;19.022;2023-12-22T10:10:25;8.02;;;1.70;;
27003;SDS011;14546;47.590;19.022;2023-12-22T10:12:54;8.07;;;2.05;;
27003;SDS011;14546;47.590;19.022;2023-12-22T10:15:20;5.35;;;1.20;;
27003;SDS011;14546;47.590;19.022;2023-12-22T10:17:49;4.25;;;0.95;;
27003;SDS011;14546;47.590;19.022;2023-12-22T10:20:15;4.75;;;1.23;;
27003;SDS011;14546;47.590;19.022;2023-12-22T10:22:41;8.25;;;1.45;;
27003;SDS011;14546;47.590;19.022;2023-12-22T10:25:08;3.22;;;1.30;;
27003;SDS011;14546;47.590;19.022;2023-12-22T10:27:35;4.95;;;2.00;;
27003;SDS011;14546;47.590;19.022;2023-12-22T10:30:02;3.05;;;1.40;;
27003;SDS011;14546;47.590;19.022;2023-12-22T10:32:28;2.92;;;1.15;;
27003;SDS011;14546;47.590;19.022;2023-12-22T10:34:55;5.22;;;1.25;;
27003;SDS011;14546;47.590;19.022;2023-12-22T10:37:22;2.88;;;0.98;;
27003;SDS011;14546;47.590;19.022;2023-12-22T10:39:54;4.07;;;1.40;;
27003;SDS011;14546;47.590;19.022;2023-12-22T10:42:20;4.93;;;1.17;;
27003;SDS011;14546;47.590;19.022;2023-12-22T10:44:47;3.38;;;0.90;;
27003;SDS011;14546;47.590;19.022;2023-12-22T10:47:13;4.63;;;1.42;;
27003;SDS011;14546;47.590;19.022;2023-12-22T10:49:39;7.40;;;1.25;;
27003;SDS011;14546;47.590;19.022;2023-12-22T10:52:05;4.05;;;1.10;;
27003;SDS011;14546;47.590;19.022;2023-12-22T10:54:31;3.60;;;1.02;;
27003;SDS011;14546;47.590;19.022;2023-12-22T10:56:57;2.78;;;0.90;;
27003;SDS011;14546;47.590;19.022;2023-12-22T10:59:25;3.97;;;1.20;;
27003;SDS011;14546;47.590;19.022;2023-12-22T11:01:53;1.73;;;0.90;;
27003;SDS011;14546;47.590;19.022;2023-12-22T11:04:22;3.75;;;1.00;;
27003;SDS011;14546;47.590;19.022;2023-12-22T11:06:51;2.72;;;0.95;;
27003;SDS011;14546;47.590;19.022;2023-12-22T11:09:21;3.53;;;1.00;;
27003;SDS011;14546;47.590;19.022;2023-12-22T11:11:47;2.67;;;0.82;;
27003;SDS011;14546;47.590;19.022;2023-12-22T11:14:14;1.58;;;0.77;;
27003;SDS011;14546;47.590;19.022;2023-12-22T11:16:40;2.90;;;1.08;;
27003;SDS011;14546;47.590;19.022;2023-12-22T11:19:12;2.85;;;1.05;;
27003;SDS011;14546;47.590;19.022;2023-12-22T11:21:38;3.25;;;0.82;;
27003;SDS011;14546;47.590;19.022;2023-12-22T11:24:05;3.78;;;1.20;;
27003;SDS011;14546;47.590;19.022;2023-12-22T11:26:32;2.22;;;0.90;;
27003;SDS011;14546;47.590;19.022;2023-12-22T11:28:58;2.90;;;1.17;;
27003;SDS011;14546;47.590;19.022;2023-12-22T11:31:25;2.03;;;1.30;;
27003;SDS011;14546;47.590;19.022;2023-12-22T11:33:53;2.95;;;0.70;;
27003;SDS011;14546;47.590;19.022;2023-12-22T11:36:20;3.17;;;1.10;;
27003;SDS011;14546;47.590;19.022;2023-12-22T11:38:46;1.77;;;0.77;;
27003;SDS011;14546;47.590;19.022;2023-12-22T11:41:14;1.73;;;0.90;;
27003;SDS011;14546;47.590;19.022;2023-12-22T11:43:41;2.33;;;0.80;;
27003;SDS011;14546;47.590;19.022;2023-12-22T11:46:08;3.40;;;1.00;;
27003;SDS011;14546;47.590;19.022;2023-12-22T11:48:34;2.00;;;0.82;;
27003;SDS011;14546;47.590;19.022;2023-12-22T11:51:00;9.60;;;1.65;;
27003;SDS011;14546;47.590;19.022;2023-12-22T11:53:29;4.72;;;1.20;;
27003;SDS011;14546;47.590;19.022;2023-12-22T12:01:20;3.35;;;0.85;;
27003;SDS011;14546;47.590;19.022;2023-12-22T12:03:53;3.72;;;0.80;;
27003;SDS011;14546;47.590;19.022;2023-12-22T12:08:48;5.65;;;1.10;;
27003;SDS011;14546;47.590;19.022;2023-12-22T12:11:16;2.35;;;0.90;;
27003;SDS011;14546;47.590;19.022;2023-12-22T12:13:42;4.70;;;1.13;;
27003;SDS011;14546;47.590;19.022;2023-12-22T12:16:10;2.67;;;0.80;;
27003;SDS011;14546;47.590;19.022;2023-12-22T12:18:36;3.60;;;1.27;;
27003;SDS011;14546;47.590;19.022;2023-12-22T12:21:02;3.05;;;0.80;;
27003;SDS011;14546;47.590;19.022;2023-12-22T12:23:29;3.78;;;1.63;;
27003;SDS011;14546;47.590;19.022;2023-12-22T12:25:55;5.15;;;1.00;;
27003;SDS011;14546;47.590;19.022;2023-12-22T12:28:31;3.65;;;1.45;;
27003;SDS011;14546;47.590;19.022;2023-12-22T12:30:57;6.75;;;2.53;;
27003;SDS011;14546;47.590;19.022;2023-12-22T12:33:25;4.28;;;0.95;;
27003;SDS011;14546;47.590;19.022;2023-12-22T12:35:52;5.85;;;1.70;;
27003;SDS011;14546;47.590;19.022;2023-12-22T12:38:19;2.97;;;1.08;;
27003;SDS011;14546;47.590;19.022;2023-12-22T12:40:47;2.67;;;0.90;;
27003;SDS011;14546;47.590;19.022;2023-12-22T12:43:15;4.18;;;1.10;;
27003;SDS011;14546;47.590;19.022;2023-12-22T12:45:42;3.70;;;1.15;;
27003;SDS011;14546;47.590;19.022;2023-12-22T12:48:08;4.60;;;0.88;;
27003;SDS011;14546;47.590;19.022;2023-12-22T12:50:34;5.25;;;1.23;;
27003;SDS011;14546;47.590;19.022;2023-12-22T13:46:31;5.05;;;2.30;;
27003;SDS011;14546;47.590;19.022;2023-12-22T13:49:00;12.38;;;5.43;;
27003;SDS011;14546;47.590;19.022;2023-12-22T13:51:27;14.68;;;6.70;;
27003;SDS011;14546;47.590;19.022;2023-12-22T13:54:03;7.60;;;3.50;;
27003;SDS011;14546;47.590;19.022;2023-12-22T13:56:33;8.38;;;3.63;;
27003;SDS011;14546;47.590;19.022;2023-12-22T13:59:00;6.50;;;2.60;;
27003;SDS011;14546;47.590;19.022;2023-12-22T14:01:26;13.50;;;2.50;;
27003;SDS011;14546;47.590;19.022;2023-12-22T14:03:52;6.50;;;2.40;;
27003;SDS011;14546;47.590;19.022;2023-12-22T14:06:19;7.00;;;2.78;;
27003;SDS011;14546;47.590;19.022;2023-12-22T14:08:45;18.40;;;6.50;;
27003;SDS011;14546;47.590;19.022;2023-12-22T14:11:11;6.68;;;2.42;;
27003;SDS011;14546;47.590;19.022;2023-12-22T14:13:38;4.10;;;1.40;;
27003;SDS011;14546;47.590;19.022;2023-12-22T14:16:06;5.45;;;1.10;;
27003;SDS011;14546;47.590;19.022;2023-12-22T14:18:32;2.78;;;1.10;;
27003;SDS011;14546;47.590;19.022;2023-12-22T14:20:58;3.10;;;1.40;;
27003;SDS011;14546;47.590;19.022;2023-12-22T14:23:24;6.53;;;1.58;;
27003;SDS011;14546;47.590;19.022;2023-12-22T14:25:50;1.20;;;1.00;;
27003;SDS011;14546;47.590;19.022;2023-12-22T14:28:16;3.08;;;1.35;;
27003;SDS011;14546;47.590;19.022;2023-12-22T14:30:42;2.97;;;1.20;;
27003;SDS011;14546;47.590;19.022;2023-12-22T14:33:08;6.80;;;1.65;;
27003;SDS011;14546;47.590;19.022;2023-12-22T14:35:35;11.60;;;3.78;;
27003;SDS011;14546;47.590;19.022;2023-12-22T14:38:02;6.88;;;1.92;;
27003;SDS011;14546;47.590;19.022;2023-12-22T14:40:27;11.68;;;3.42;;
27003;SDS011;14546;47.590;19.022;2023-12-22T14:42:54;10.38;;;1.75;;
27003;SDS011;14546;47.590;19.022;2023-12-22T14:45:20;6.30;;;1.77;;
27003;SDS011;14546;47.590;19.022;2023-12-22T14:47:46;5.50;;;1.42;;
27003;SDS011;14546;47.590;19.022;2023-12-22T14:50:12;7.22;;;1.05;;
27003;SDS011;14546;47.590;19.022;2023-12-22T14:52:38;2.42;;;1.05;;
27003;SDS011;14546;47.590;19.022;2023-12-22T14:55:05;4.97;;;1.65;;
27003;SDS011;14546;47.590;19.022;2023-12-22T14:57:31;5.78;;;2.00;;
27003;SDS011;14546;47.590;19.022;2023-12-22T14:59:58;2.50;;;1.20;;
27003;SDS011;14546;47.590;19.022;2023-12-22T15:02:25;2.63;;;1.33;;
27003;SDS011;14546;47.590;19.022;2023-12-22T15:04:51;6.50;;;1.88;;
27003;SDS011;14546;47.590;19.022;2023-12-22T15:07:17;7.20;;;2.53;;
27003;SDS011;14546;47.590;19.022;2023-12-22T15:09:44;4.20;;;1.92;;
27003;SDS011;14546;47.590;19.022;2023-12-22T15:12:14;6.28;;;2.50;;
27003;SDS011;14546;47.590;19.022;2023-12-22T15:14:44;9.63;;;3.50;;
27003;SDS011;14546;47.590;19.022;2023-12-22T15:17:10;5.47;;;2.47;;
27003;SDS011;14546;47.590;19.022;2023-12-22T15:19:39;4.63;;;1.98;;
27003;SDS011;14546;47.590;19.022;2023-12-22T15:22:06;3.38;;;1.48;;
27003;SDS011;14546;47.590;19.022;2023-12-22T15:24:32;4.38;;;1.15;;
27003;SDS011;14546;47.590;19.022;2023-12-22T15:26:58;2.92;;;1.27;;
27003;SDS011;14546;47.590;19.022;2023-12-22T15:29:24;3.00;;;1.48;;
27003;SDS011;14546;47.590;19.022;2023-12-22T15:31:50;4.05;;;1.52;;
27003;SDS011;14546;47.590;19.022;2023-12-22T15:34:21;4.72;;;1.58;;
27003;SDS011;14546;47.590;19.022;2023-12-22T15:36:48;1.80;;;0.90;;
27003;SDS011;14546;47.590;19.022;2023-12-22T15:39:14;7.13;;;1.67;;
27003;SDS011;14546;47.590;19.022;2023-12-22T15:41:40;5.88;;;1.30;;
27003;SDS011;14546;47.590;19.022;2023-12-22T15:44:06;7.13;;;1.98;;
27003;SDS011;14546;47.590;19.022;2023-12-22T15:46:32;8.18;;;1.70;;
27003;SDS011;14546;47.590;19.022;2023-12-22T15:48:58;6.47;;;2.17;;
27003;SDS011;14546;47.590;19.022;2023-12-22T15:51:24;4.95;;;2.72;;
27003;SDS011;14546;47.590;19.022;2023-12-22T15:53:50;3.75;;;1.80;;